createdAt,value
2023-02-22T00:00:48.779Z,6.86
2023-02-22T00:03:25.023Z,6.87
2023-02-22T00:06:04.358Z,6.89
2023-02-22T00:08:34.622Z,6.97
2023-02-22T00:11:03.509Z,6.94
2023-02-22T00:13:30.511Z,6.94
2023-02-22T00:15:58.167Z,6.88
2023-02-22T00:18:27.992Z,6.86
2023-02-22T00:21:00.304Z,6.85
2023-02-22T00:23:29.559Z,6.83
2023-02-22T00:25:58.713Z,6.70
2023-02-22T00:28:25.545Z,6.75
2023-02-22T00:30:52.740Z,6.68
2023-02-22T00:33:19.356Z,6.64
2023-02-22T00:35:46.266Z,6.62
2023-02-22T00:38:14.820Z,6.68
2023-02-22T00:40:41.460Z,6.43
2023-02-22T00:43:08.096Z,6.47
2023-02-22T00:45:36.636Z,6.63
2023-02-22T00:48:05.393Z,6.52
2023-02-22T00:50:32.543Z,6.54
2023-02-22T00:53:01.571Z,6.57
2023-02-22T00:55:34.234Z,6.48
2023-02-22T00:58:02.091Z,6.47
2023-02-22T01:00:33.953Z,6.55
2023-02-22T01:03:00.485Z,6.33
2023-02-22T01:05:29.243Z,6.47
2023-02-22T01:07:57.135Z,6.53
2023-02-22T01:10:25.704Z,6.55
2023-02-22T01:12:52.761Z,6.31
2023-02-22T01:15:23.898Z,6.45
2023-02-22T01:17:53.530Z,6.30
2023-02-22T01:20:25.979Z,6.29
2023-02-22T01:22:54.676Z,6.37
2023-02-22T01:25:23.997Z,6.06
2023-02-22T01:27:51.722Z,6.16
2023-02-22T01:30:24.054Z,6.11
2023-02-22T01:32:53.558Z,6.14
2023-02-22T01:35:23.901Z,6.13
2023-02-22T01:37:50.333Z,5.91
2023-02-22T01:40:23.751Z,5.97
2023-02-22T01:42:57.787Z,5.97
2023-02-22T01:45:30.651Z,5.94
2023-02-22T01:48:01.982Z,6.00
2023-02-22T01:50:30.217Z,5.94
2023-02-22T01:52:56.776Z,6.04
2023-02-22T01:55:23.531Z,5.96
2023-02-22T01:57:49.974Z,6.08
2023-02-22T02:00:21.153Z,5.96
2023-02-22T02:03:01.778Z,5.88
2023-02-22T02:05:31.718Z,6.01
2023-02-22T02:08:03.563Z,5.78
2023-02-22T02:10:31.732Z,6.04
2023-02-22T02:12:58.571Z,5.95
2023-02-22T02:15:32.207Z,6.00
2023-02-22T02:18:06.028Z,5.94
2023-02-22T02:20:42.153Z,5.88
2023-02-22T02:23:34.477Z,6.02
2023-02-22T02:26:29.028Z,5.80
2023-02-22T02:29:21.596Z,5.76
2023-02-22T02:32:06.327Z,5.80
2023-02-22T02:34:40.658Z,5.78
2023-02-22T02:37:28.082Z,5.86
2023-02-22T02:40:11.380Z,5.78
2023-02-22T02:43:15.257Z,5.71
2023-02-22T02:45:57.383Z,5.72
2023-02-22T02:48:28.193Z,5.58
2023-02-22T02:50:58.640Z,5.60
2023-02-22T02:53:34.312Z,5.54
2023-02-22T02:56:00.739Z,5.75
2023-02-22T02:58:27.951Z,5.63
2023-02-22T03:00:58.443Z,5.59
2023-02-22T03:03:52.466Z,5.45
2023-02-22T03:06:40.530Z,5.50
2023-02-22T03:09:39.038Z,5.52
2023-02-22T03:12:32.666Z,5.48
2023-02-22T03:15:17.210Z,5.54
2023-02-22T03:17:54.082Z,5.53
2023-02-22T03:20:34.023Z,5.45
2023-02-22T03:23:10.936Z,5.45
2023-02-22T03:25:43.200Z,5.43
2023-02-22T03:28:12.958Z,5.50
2023-02-22T03:30:46.738Z,5.43
2023-02-22T03:33:20.388Z,5.25
2023-02-22T03:35:56.770Z,5.32
2023-02-22T03:38:27.792Z,5.32
2023-02-22T03:40:59.284Z,5.34
2023-02-22T03:43:31.478Z,5.40
2023-02-22T03:45:59.372Z,5.37
2023-02-22T03:48:36.467Z,5.41
2023-02-22T03:51:04.517Z,5.27
2023-02-22T03:53:33.940Z,5.31
2023-02-22T03:56:02.962Z,5.27
2023-02-22T03:58:33.021Z,5.41
2023-02-22T04:00:59.809Z,5.20
2023-02-22T04:03:26.307Z,5.33
2023-02-22T04:05:52.771Z,5.30
2023-02-22T04:08:19.311Z,5.26
2023-02-22T04:10:45.833Z,5.23
2023-02-22T04:13:14.551Z,5.23
2023-02-22T04:15:41.046Z,5.08
2023-02-22T04:18:07.557Z,5.27
2023-02-22T04:20:34.907Z,5.22
2023-02-22T04:23:01.386Z,5.09
2023-02-22T04:25:27.970Z,5.17
2023-02-22T04:27:54.379Z,5.12
2023-02-22T04:30:21.370Z,5.18
2023-02-22T04:32:48.122Z,5.25
2023-02-22T04:35:14.751Z,5.44
2023-02-22T04:37:41.195Z,5.29
2023-02-22T04:40:08.256Z,5.16
2023-02-22T04:42:36.102Z,4.97
2023-02-22T04:45:03.417Z,5.08
2023-02-22T04:47:29.955Z,4.98
2023-02-22T04:49:56.452Z,4.84
2023-02-22T04:52:22.884Z,4.98
2023-02-22T04:54:49.302Z,5.14
2023-02-22T04:57:15.747Z,5.20
2023-02-22T04:59:42.240Z,4.90
2023-02-22T05:02:08.849Z,5.08
2023-02-22T05:04:37.846Z,5.20
2023-02-22T05:07:05.055Z,5.39
2023-02-22T05:09:31.543Z,5.44
2023-02-22T05:11:58.003Z,5.46
2023-02-22T05:14:26.827Z,5.43
2023-02-22T05:16:59.608Z,5.53
2023-02-22T05:19:26.131Z,5.55
2023-02-22T05:21:52.527Z,5.49
2023-02-22T05:24:19.089Z,5.14
2023-02-22T05:26:46.405Z,5.21
2023-02-22T05:29:13.211Z,5.21
2023-02-22T05:31:41.854Z,5.23
2023-02-22T05:34:11.354Z,5.14
2023-02-22T05:36:37.868Z,5.12
2023-02-22T05:39:05.489Z,5.14
2023-02-22T05:41:32.096Z,5.18
2023-02-22T05:43:58.701Z,4.93
2023-02-22T05:46:25.249Z,4.93
2023-02-22T05:48:51.787Z,5.06
2023-02-22T05:51:19.657Z,5.06
2023-02-22T05:53:46.420Z,5.14
2023-02-22T05:56:12.827Z,5.10
2023-02-22T05:58:39.225Z,5.15
2023-02-22T06:01:05.836Z,5.15
2023-02-22T06:03:32.298Z,4.83
2023-02-22T06:05:58.918Z,5.05
2023-02-22T06:08:25.307Z,4.78
2023-02-22T06:10:51.766Z,4.59
2023-02-22T06:13:18.213Z,4.79
2023-02-22T06:15:44.715Z,4.90
2023-02-22T06:18:11.207Z,4.78
2023-02-22T06:20:37.778Z,4.79
2023-02-22T06:23:04.561Z,4.51
2023-02-22T06:25:31.877Z,4.59
2023-02-22T06:28:00.500Z,4.75
2023-02-22T06:30:27.357Z,5.03
2023-02-22T06:32:53.883Z,4.98
2023-02-22T06:35:20.769Z,5.05
2023-02-22T06:37:47.554Z,4.97
2023-02-22T06:40:14.642Z,4.91
2023-02-22T06:42:41.542Z,4.88
2023-02-22T06:45:08.753Z,5.06
2023-02-22T06:47:41.298Z,4.97
2023-02-22T06:50:11.883Z,5.13
2023-02-22T06:52:42.672Z,5.29
2023-02-22T06:55:09.158Z,5.31
2023-02-22T06:57:35.614Z,5.00
2023-02-22T07:00:02.045Z,5.16
2023-02-22T07:02:28.502Z,5.34
2023-02-22T07:04:54.904Z,5.33
2023-02-22T07:07:25.138Z,5.32
2023-02-22T07:09:51.561Z,5.29
2023-02-22T07:12:18.018Z,5.43
2023-02-22T07:14:44.467Z,5.43
2023-02-22T07:17:11.576Z,5.53
2023-02-22T07:19:38.902Z,5.43
2023-02-22T07:22:06.228Z,5.50
2023-02-22T07:24:35.061Z,5.56
2023-02-22T07:27:02.544Z,5.60
2023-02-22T07:29:29.169Z,5.53
2023-02-22T07:31:56.066Z,5.50
2023-02-22T07:34:22.520Z,5.52
2023-02-22T07:36:49.119Z,5.53
2023-02-22T07:39:15.599Z,5.61
2023-02-22T07:41:42.043Z,5.63
2023-02-22T07:44:08.467Z,5.73
2023-02-22T07:46:34.907Z,5.58
2023-02-22T07:49:01.359Z,5.68
2023-02-22T07:51:27.823Z,5.43
2023-02-22T07:53:54.325Z,5.51
2023-02-22T07:56:20.801Z,5.46
2023-02-22T07:58:47.290Z,5.58
2023-02-22T08:01:14.365Z,5.60
2023-02-22T08:03:40.827Z,5.73
2023-02-22T08:06:08.311Z,5.81
2023-02-22T08:08:35.153Z,5.56
2023-02-22T08:11:01.675Z,5.49
2023-02-22T08:13:28.225Z,5.69
2023-02-22T08:15:55.078Z,5.71
2023-02-22T08:18:23.612Z,5.67
2023-02-22T08:20:52.165Z,5.66
2023-02-22T08:23:20.111Z,5.69
2023-02-22T08:25:46.658Z,5.74
2023-02-22T08:28:15.681Z,5.78
2023-02-22T08:30:43.807Z,5.75
2023-02-22T08:33:14.356Z,5.61
2023-02-22T08:35:41.376Z,5.54
2023-02-22T08:38:14.649Z,5.48
2023-02-22T08:40:41.071Z,5.56
2023-02-22T08:43:07.513Z,5.67
2023-02-22T08:45:34.000Z,5.59
2023-02-22T08:48:00.482Z,5.71
2023-02-22T08:50:30.133Z,5.70
2023-02-22T08:52:59.372Z,5.74
2023-02-22T08:55:28.878Z,5.81
2023-02-22T08:57:55.324Z,5.86
2023-02-22T09:00:25.264Z,5.94
2023-02-22T09:02:52.712Z,6.04
2023-02-22T09:05:19.547Z,6.06
2023-02-22T09:07:46.048Z,6.27
2023-02-22T09:10:17.698Z,6.56
2023-02-22T09:12:44.257Z,6.73
2023-02-22T09:15:11.506Z,6.71
2023-02-22T09:17:38.511Z,6.83
2023-02-22T09:20:06.772Z,6.92
2023-02-22T09:22:33.344Z,6.91
2023-02-22T09:25:02.631Z,6.99
2023-02-22T09:27:34.373Z,6.88
2023-02-22T09:30:00.894Z,6.78
2023-02-22T09:32:28.109Z,7.01
2023-02-22T09:34:55.711Z,7.00
2023-02-22T09:37:22.345Z,7.22
2023-02-22T09:39:48.896Z,7.46
2023-02-22T09:42:21.069Z,7.31
2023-02-22T09:44:55.704Z,7.42
2023-02-22T09:47:38.853Z,7.34
2023-02-22T09:50:16.108Z,7.44
2023-02-22T09:52:42.461Z,7.04
2023-02-22T09:55:39.305Z,7.15
2023-02-22T09:58:39.777Z,7.79
2023-02-22T10:01:20.050Z,7.92
2023-02-22T10:03:56.559Z,8.35
2023-02-22T10:06:25.077Z,8.37
2023-02-22T10:08:56.402Z,9.02
2023-02-22T10:11:28.668Z,9.76
2023-02-22T10:14:20.061Z,10.14
2023-02-22T10:17:22.987Z,9.97
2023-02-22T10:19:49.405Z,9.52
2023-02-22T10:22:34.029Z,9.77
2023-02-22T10:25:05.209Z,9.78
2023-02-22T10:27:42.297Z,9.70
2023-02-22T10:30:25.109Z,10.05
2023-02-22T10:33:05.257Z,9.95
2023-02-22T10:35:37.409Z,10.22
2023-02-22T10:38:20.352Z,10.41
2023-02-22T10:40:55.451Z,10.73
2023-02-22T10:43:23.394Z,10.24
2023-02-22T10:45:55.819Z,10.69
2023-02-22T10:48:24.976Z,10.71
2023-02-22T10:50:54.126Z,10.83
2023-02-22T10:53:20.514Z,11.44
2023-02-22T10:56:05.673Z,10.79
2023-02-22T10:58:41.805Z,10.51
2023-02-22T11:01:20.497Z,10.40
2023-02-22T11:03:57.212Z,9.97
2023-02-22T11:06:24.162Z,9.91
2023-02-22T11:08:52.134Z,10.01
2023-02-22T11:11:25.860Z,10.15
2023-02-22T11:13:56.609Z,10.18
2023-02-22T11:16:25.866Z,10.05
2023-02-22T11:19:01.473Z,9.90
2023-02-22T11:21:31.560Z,9.68
2023-02-22T11:24:08.718Z,9.35
2023-02-22T11:26:54.956Z,9.33
2023-02-22T11:29:27.533Z,9.23
2023-02-22T11:31:55.613Z,9.11
2023-02-22T11:34:29.001Z,9.10
2023-02-22T11:36:56.555Z,9.18
2023-02-22T11:39:29.051Z,9.19
2023-02-22T11:41:56.648Z,9.43
2023-02-22T11:44:24.825Z,9.56
2023-02-22T11:46:55.741Z,9.31
2023-02-22T11:49:34.008Z,9.67
2023-02-22T11:52:14.415Z,9.64
2023-02-22T11:55:43.251Z,9.56
2023-02-22T11:58:40.613Z,9.50
2023-02-22T12:01:22.187Z,9.65
2023-02-22T12:03:51.737Z,10.06
2023-02-22T12:06:40.438Z,10.06
2023-02-22T12:09:41.968Z,9.92
2023-02-22T12:12:21.518Z,9.68
2023-02-22T12:15:07.612Z,9.59
2023-02-22T12:18:06.492Z,9.61
2023-02-22T12:20:40.671Z,9.57
2023-02-22T12:23:10.114Z,9.46
2023-02-22T12:25:45.068Z,9.63
2023-02-22T12:28:24.840Z,9.49
2023-02-22T12:31:23.657Z,9.59
2023-02-22T12:33:57.165Z,9.61
2023-02-22T12:36:33.004Z,9.57
2023-02-22T12:39:07.397Z,9.64
2023-02-22T12:41:48.416Z,9.55
2023-02-22T12:44:20.327Z,9.43
2023-02-22T12:46:54.961Z,9.63
2023-02-22T12:50:03.378Z,9.60
2023-02-22T12:52:47.791Z,9.52
2023-02-22T12:55:23.154Z,9.55
2023-02-22T12:57:59.530Z,9.64
2023-02-22T13:00:43.082Z,9.68
2023-02-22T13:03:18.318Z,9.64
2023-02-22T13:05:55.094Z,9.62
2023-02-22T13:08:34.268Z,9.66
2023-02-22T13:11:36.904Z,9.63
2023-02-22T13:14:37.849Z,9.64
2023-02-22T13:17:22.538Z,9.67
2023-02-22T13:20:07.822Z,9.72
2023-02-22T13:22:43.313Z,9.78
2023-02-22T13:25:19.640Z,9.74
2023-02-22T13:27:52.459Z,9.72
2023-02-22T13:30:38.943Z,9.82
2023-02-22T13:33:17.297Z,9.74
2023-02-22T13:36:03.721Z,9.60
2023-02-22T13:38:45.836Z,9.50
2023-02-22T13:41:40.084Z,9.56
2023-02-22T13:44:23.318Z,9.59
2023-02-22T13:47:05.062Z,9.58
2023-02-22T13:49:53.399Z,9.58
2023-02-22T13:52:26.149Z,9.60
2023-02-22T13:55:00.311Z,9.60
2023-02-22T13:57:48.559Z,9.70
2023-02-22T14:00:14.972Z,9.60
2023-02-22T14:03:02.442Z,9.59
2023-02-22T14:05:51.964Z,9.59
2023-02-22T14:08:25.368Z,9.64
2023-02-22T14:10:56.390Z,9.81
2023-02-22T14:13:30.519Z,9.75
2023-02-22T14:16:02.754Z,9.78
2023-02-22T14:18:33.900Z,9.76
2023-02-22T14:21:07.926Z,9.69
2023-02-22T14:23:40.420Z,9.74
2023-02-22T14:26:15.881Z,9.71
2023-02-22T14:28:50.098Z,9.75
2023-02-22T14:31:34.977Z,9.70
2023-02-22T14:34:09.404Z,9.64
2023-02-22T14:37:07.643Z,9.62
2023-02-22T14:39:43.525Z,9.66
2023-02-22T14:42:25.407Z,9.67
2023-02-22T14:45:04.890Z,9.62
2023-02-22T14:47:49.884Z,9.66
2023-02-22T14:50:27.045Z,9.60
2023-02-22T14:53:11.562Z,9.59
2023-02-22T14:55:46.795Z,9.52
2023-02-22T14:58:25.687Z,9.44
2023-02-22T15:00:56.630Z,9.49
2023-02-22T15:03:39.804Z,9.52
2023-02-22T15:06:10.931Z,9.48
2023-02-22T15:08:41.641Z,9.46
2023-02-22T15:11:31.016Z,9.46
2023-02-22T15:13:58.390Z,9.47
2023-02-22T15:16:27.701Z,9.50
2023-02-22T15:18:58.014Z,9.44
2023-02-22T15:21:27.549Z,9.45
2023-02-22T15:24:07.713Z,9.39
2023-02-22T15:26:51.899Z,9.37
2023-02-22T15:29:21.425Z,9.41
2023-02-22T15:31:48.718Z,9.40
2023-02-22T15:34:15.365Z,9.41
2023-02-22T15:36:43.887Z,9.40
2023-02-22T15:39:29.586Z,9.32
2023-02-22T15:42:21.023Z,9.30
2023-02-22T15:44:49.794Z,9.18
2023-02-22T15:47:21.666Z,9.20
2023-02-22T15:50:25.947Z,9.20
2023-02-22T15:53:06.719Z,9.16
2023-02-22T15:55:47.417Z,9.16
2023-02-22T15:58:23.912Z,9.09
2023-02-22T16:00:59.440Z,9.14
2023-02-22T16:03:28.774Z,9.15
2023-02-22T16:05:57.026Z,9.15
2023-02-22T16:08:29.312Z,9.07
2023-02-22T16:11:02.810Z,9.04
2023-02-22T16:13:33.898Z,9.00
2023-02-22T16:16:02.132Z,8.96
2023-02-22T16:18:37.736Z,8.97
2023-02-22T16:21:07.712Z,8.86
2023-02-22T16:23:48.232Z,8.86
2023-02-22T16:26:29.871Z,8.81
2023-02-22T16:29:02.022Z,8.79
2023-02-22T16:31:39.713Z,8.74
2023-02-22T16:34:08.139Z,8.71
2023-02-22T16:36:41.848Z,8.66
2023-02-22T16:39:14.122Z,8.67
2023-02-22T16:41:40.647Z,8.72
2023-02-22T16:44:07.948Z,8.65
2023-02-22T16:46:35.099Z,8.68
2023-02-22T16:49:03.399Z,8.68
2023-02-22T16:51:34.955Z,8.56
2023-02-22T16:54:02.355Z,8.57
2023-02-22T16:56:31.149Z,8.56
2023-02-22T16:59:01.131Z,8.51
2023-02-22T17:01:27.644Z,8.57
2023-02-22T17:03:54.158Z,8.57
2023-02-22T17:06:21.234Z,8.54
2023-02-22T17:08:48.781Z,8.57
2023-02-22T17:11:15.260Z,8.58
2023-02-22T17:13:41.673Z,8.56
2023-02-22T17:16:14.670Z,8.53
2023-02-22T17:18:41.209Z,8.55
2023-02-22T17:21:10.760Z,8.56
2023-02-22T17:23:37.273Z,8.55
2023-02-22T17:26:04.230Z,8.61
2023-02-22T17:28:31.670Z,8.60
2023-02-22T17:31:02.578Z,8.59
2023-02-22T17:33:32.917Z,8.53
2023-02-22T17:36:01.827Z,8.56
2023-02-22T17:38:30.400Z,8.54
2023-02-22T17:40:59.453Z,8.56
2023-02-22T17:43:27.816Z,8.50
2023-02-22T17:45:54.643Z,8.51
2023-02-22T17:48:23.878Z,8.54
2023-02-22T17:50:51.305Z,8.50
2023-02-22T17:53:21.758Z,8.52
2023-02-22T17:55:48.623Z,8.48
2023-02-22T17:58:15.528Z,8.41
2023-02-22T18:00:46.072Z,8.45
2023-02-22T18:03:16.111Z,8.43
2023-02-22T18:05:46.363Z,8.47
2023-02-22T18:08:14.509Z,8.50
2023-02-22T18:10:42.490Z,8.50
2023-02-22T18:13:12.745Z,8.46
2023-02-22T18:15:40.044Z,8.46
2023-02-22T18:18:06.635Z,8.48
2023-02-22T18:20:38.267Z,8.45
2023-02-22T18:23:10.755Z,8.45
2023-02-22T18:25:38.066Z,8.44
2023-02-22T18:28:06.329Z,8.38
2023-02-22T18:30:35.852Z,8.36
2023-02-22T18:33:03.723Z,8.34
2023-02-22T18:35:30.963Z,8.32
2023-02-22T18:37:57.413Z,8.38
2023-02-22T18:40:23.967Z,8.41
2023-02-22T18:42:50.429Z,8.39
2023-02-22T18:45:17.215Z,8.44
2023-02-22T18:47:45.520Z,8.44
2023-02-22T18:50:12.995Z,8.45
2023-02-22T18:52:45.795Z,8.44
2023-02-22T18:55:17.350Z,8.48
2023-02-22T18:57:45.110Z,8.41
2023-02-22T19:00:16.803Z,8.34
2023-02-22T19:02:43.662Z,8.32
2023-02-22T19:05:11.538Z,8.35
2023-02-22T19:07:38.693Z,8.37
2023-02-22T19:10:06.950Z,8.30
2023-02-22T19:12:33.915Z,8.32
2023-02-22T19:15:00.658Z,8.26
2023-02-22T19:17:28.884Z,8.32
2023-02-22T19:19:55.913Z,8.39
2023-02-22T19:22:25.945Z,8.34
2023-02-22T19:24:55.870Z,8.37
2023-02-22T19:27:23.495Z,8.34
2023-02-22T19:29:50.027Z,8.37
2023-02-22T19:32:17.454Z,8.30
2023-02-22T19:34:44.555Z,8.33
2023-02-22T19:37:13.168Z,8.41
2023-02-22T19:39:41.841Z,8.40
2023-02-22T19:42:09.989Z,8.41
2023-02-22T19:44:37.360Z,8.43
2023-02-22T19:47:08.898Z,8.44
2023-02-22T19:49:41.041Z,8.40
2023-02-22T19:52:07.471Z,8.40
2023-02-22T19:54:33.980Z,8.43
2023-02-22T19:57:01.067Z,8.39
2023-02-22T19:59:28.155Z,8.42
2023-02-22T20:01:56.215Z,8.38
2023-02-22T20:04:23.685Z,8.34
2023-02-22T20:06:54.528Z,8.33
2023-02-22T20:09:30.316Z,8.30
2023-02-22T20:11:57.053Z,8.35
2023-02-22T20:14:28.419Z,8.35
2023-02-22T20:16:55.621Z,8.41
2023-02-22T20:19:26.711Z,8.36
2023-02-22T20:21:58.201Z,8.32
2023-02-22T20:24:25.145Z,8.30
2023-02-22T20:26:55.685Z,8.29
2023-02-22T20:29:29.279Z,8.30
2023-02-22T20:31:58.044Z,8.32
2023-02-22T20:34:26.572Z,8.31
2023-02-22T20:36:53.646Z,8.35
2023-02-22T20:39:20.296Z,8.33
2023-02-22T20:41:47.001Z,8.32
2023-02-22T20:44:16.025Z,8.27
2023-02-22T20:46:43.529Z,8.35
2023-02-22T20:49:13.257Z,8.34
2023-02-22T20:51:40.352Z,8.30
2023-02-22T20:54:08.509Z,8.33
2023-02-22T20:56:34.963Z,8.30
2023-02-22T20:59:03.734Z,8.25
2023-02-22T21:01:30.872Z,8.25
2023-02-22T21:04:05.234Z,8.20
2023-02-22T21:06:34.488Z,8.27
2023-02-22T21:09:02.920Z,8.21
2023-02-22T21:11:31.577Z,8.17
2023-02-22T21:13:59.425Z,8.05
2023-02-22T21:16:36.888Z,8.18
2023-02-22T21:19:06.517Z,8.15
2023-02-22T21:21:33.103Z,8.12
2023-02-22T21:24:01.754Z,8.07
2023-02-22T21:26:31.541Z,8.10
2023-02-22T21:29:00.671Z,8.05
2023-02-22T21:31:28.442Z,8.10
2023-02-22T21:33:58.046Z,8.09
2023-02-22T21:36:26.314Z,8.13
2023-02-22T21:39:00.988Z,7.97
2023-02-22T21:41:29.445Z,7.93
2023-02-22T21:43:57.763Z,7.96
2023-02-22T21:46:26.220Z,8.03
2023-02-22T21:48:52.766Z,8.00
2023-02-22T21:51:22.317Z,7.91
2023-02-22T21:53:53.764Z,7.96
2023-02-22T21:56:29.190Z,7.93
2023-02-22T21:59:00.416Z,7.99
2023-02-22T22:01:28.616Z,8.02
2023-02-22T22:03:56.636Z,8.02
2023-02-22T22:06:23.194Z,8.01
2023-02-22T22:08:50.409Z,8.07
2023-02-22T22:11:17.978Z,8.07
2023-02-22T22:13:45.379Z,8.09
2023-02-22T22:16:18.075Z,8.03
2023-02-22T22:18:46.843Z,7.92
2023-02-22T22:21:18.239Z,8.03
2023-02-22T22:23:47.233Z,8.03
2023-02-22T22:26:16.401Z,7.95
2023-02-22T22:28:56.049Z,7.95
2023-02-22T22:31:24.713Z,7.85
2023-02-22T22:33:52.414Z,7.86
2023-02-22T22:36:21.439Z,7.92
2023-02-22T22:38:48.713Z,7.94
2023-02-22T22:41:19.102Z,7.92
2023-02-22T22:43:46.648Z,7.94
2023-02-22T22:46:17.297Z,7.83
2023-02-22T22:48:47.017Z,7.87
2023-02-22T22:51:18.299Z,7.93
2023-02-22T22:53:46.702Z,7.96
2023-02-22T22:56:26.007Z,7.94
2023-02-22T22:58:55.643Z,7.95
2023-02-22T23:01:28.357Z,7.97
2023-02-22T23:04:01.588Z,7.91
2023-02-22T23:06:34.413Z,7.88
2023-02-22T23:09:11.761Z,7.90
2023-02-22T23:11:44.611Z,7.83
2023-02-22T23:14:14.068Z,7.95
2023-02-22T23:16:42.389Z,7.92
2023-02-22T23:19:09.335Z,7.80
2023-02-22T23:21:36.156Z,7.80
2023-02-22T23:24:06.199Z,7.81
2023-02-22T23:26:33.266Z,7.86
2023-02-22T23:29:00.469Z,7.89
2023-02-22T23:31:29.998Z,7.89
2023-02-22T23:33:58.745Z,7.90
2023-02-22T23:36:26.504Z,7.86
2023-02-22T23:38:52.998Z,7.81
2023-02-22T23:41:19.869Z,7.92
2023-02-22T23:43:47.282Z,7.90
2023-02-22T23:46:18.552Z,7.93
2023-02-22T23:48:54.541Z,7.83
2023-02-22T23:51:25.891Z,7.88
2023-02-22T23:53:55.868Z,7.90
2023-02-22T23:56:27.379Z,7.89
2023-02-22T23:58:57.385Z,7.88
